Terminal Aerodrome Forecast
Issued by NWS

Home | Current Version | Previous Version | Text Only | Print | Product List | Glossary On
Versions: 1 2 3 4 5 6 7 8 9 10 11 12 13 14 15 16 17 18 19 20 21 22 23 24 25 26
000
FTUS42 KMLB 252000 AAA
TAFISM
TAF AMD
KISM 252003Z 2520/2618 15007KT 4SM SHRA BR SCT015 BKN025 OVC045
      TEMPO 2520/2523 2SM TSRA BR BKN015CB OVC020
     FM260200 19010KT P6SM VCSH BKN010
     FM260900 32016G24KT P6SM VCSH BKN025=

USA.gov is the U.S. government's official web portal to all federal, state and local government web resources and services.